createdAt,value
2022-10-31T00:01:41.957Z,95086.00
2022-10-31T00:04:08.918Z,95079.22
2022-10-31T00:06:35.859Z,95086.28
2022-10-31T00:09:05.275Z,95095.13
2022-10-31T00:11:32.513Z,95096.03
2022-10-31T00:14:00.372Z,95101.50
2022-10-31T00:16:28.764Z,95092.75
2022-10-31T00:19:01.183Z,95093.69
2022-10-31T00:21:29.962Z,95092.25
2022-10-31T00:23:58.260Z,95084.13
2022-10-31T00:26:25.667Z,95080.31
2022-10-31T00:28:52.627Z,95082.47
2022-10-31T00:31:19.718Z,95085.66
2022-10-31T00:33:46.990Z,95094.56
2022-10-31T00:36:16.292Z,95085.97
2022-10-31T00:38:44.373Z,95091.06
2022-10-31T00:41:12.447Z,95080.72
2022-10-31T00:43:42.111Z,95085.00
2022-10-31T00:46:09.620Z,95085.75
2022-10-31T00:48:36.508Z,95081.84
2022-10-31T00:51:03.954Z,95078.34
2022-10-31T00:53:31.163Z,95075.69
2022-10-31T00:55:58.228Z,95076.28
2022-10-31T00:58:26.441Z,95081.09
2022-10-31T01:00:57.323Z,95076.66
2022-10-31T01:03:26.566Z,95090.13
2022-10-31T01:06:07.839Z,95078.75
2022-10-31T01:08:35.201Z,95091.00
2022-10-31T01:11:12.604Z,95086.53
2022-10-31T01:13:41.409Z,95083.28
2022-10-31T01:16:09.714Z,95091.69
2022-10-31T01:18:36.922Z,95089.59
2022-10-31T01:21:18.756Z,95090.91
2022-10-31T01:23:45.893Z,95086.13
2022-10-31T01:26:17.247Z,95093.13
2022-10-31T01:28:59.138Z,95091.28
2022-10-31T01:31:28.805Z,95086.38
2022-10-31T01:33:56.371Z,95090.84
2022-10-31T01:36:29.707Z,95088.47
2022-10-31T01:39:00.031Z,95090.34
2022-10-31T01:41:30.262Z,95090.22
2022-10-31T01:44:00.262Z,95093.59
2022-10-31T01:46:33.965Z,95090.13
2022-10-31T01:49:06.603Z,95086.47
2022-10-31T01:51:39.724Z,95082.31
2022-10-31T01:54:11.827Z,95088.53
2022-10-31T01:56:42.768Z,95091.94
2022-10-31T01:59:15.840Z,95098.94
2022-10-31T02:01:43.070Z,95096.09
2022-10-31T02:04:10.324Z,95103.72
2022-10-31T02:06:42.504Z,95097.50
2022-10-31T02:09:15.112Z,95097.19
2022-10-31T02:11:45.208Z,95093.84
2022-10-31T02:14:12.640Z,95086.13
2022-10-31T02:16:39.551Z,95081.84
2022-10-31T02:19:12.548Z,95081.41
2022-10-31T02:21:48.860Z,95087.78
2022-10-31T02:24:56.360Z,95093.53
2022-10-31T02:28:07.314Z,95104.34
2022-10-31T02:31:29.294Z,95101.63
2022-10-31T02:34:35.875Z,95109.59
2022-10-31T02:37:34.355Z,95109.09
2022-10-31T02:40:18.274Z,95113.41
2022-10-31T02:43:17.342Z,95106.88
2022-10-31T02:45:56.320Z,95099.56
2022-10-31T02:48:29.188Z,95100.69
2022-10-31T02:51:02.697Z,95116.72
2022-10-31T02:53:35.023Z,95125.00
2022-10-31T02:56:15.945Z,95111.16
2022-10-31T02:59:14.741Z,95117.03
2022-10-31T03:02:03.152Z,95117.91
2022-10-31T03:05:16.041Z,95122.69
2022-10-31T03:08:10.263Z,95119.97
2022-10-31T03:10:48.777Z,95126.16
2022-10-31T03:13:31.329Z,95119.13
2022-10-31T03:16:42.017Z,95118.78
2022-10-31T03:19:45.942Z,95119.22
2022-10-31T03:22:25.075Z,95123.13
2022-10-31T03:24:54.301Z,95128.09
2022-10-31T03:27:27.716Z,95123.94
2022-10-31T03:29:58.817Z,95128.06
2022-10-31T03:32:44.056Z,95123.28
2022-10-31T03:35:14.458Z,95131.88
2022-10-31T03:37:43.026Z,95137.78
2022-10-31T03:40:16.717Z,95131.81
2022-10-31T03:42:51.699Z,95132.69
2022-10-31T03:45:28.878Z,95146.03
2022-10-31T03:47:59.332Z,95147.94
2022-10-31T03:50:34.223Z,95146.25
2022-10-31T03:53:11.816Z,95146.88
2022-10-31T03:55:49.744Z,95151.84
2022-10-31T03:58:27.269Z,95149.72
2022-10-31T04:00:57.415Z,95153.44
2022-10-31T04:03:29.069Z,95158.31
2022-10-31T04:06:02.268Z,95151.38
2022-10-31T04:08:33.465Z,95156.28
2022-10-31T04:11:02.066Z,95151.50
2022-10-31T04:13:32.625Z,95162.41
2022-10-31T04:16:06.259Z,95165.72
2022-10-31T04:18:34.091Z,95164.50
2022-10-31T04:21:03.620Z,95167.69
2022-10-31T04:23:31.750Z,95171.13
2022-10-31T04:26:00.540Z,95170.53
2022-10-31T04:28:27.667Z,95168.75
2022-10-31T04:30:54.818Z,95169.91
2022-10-31T04:33:23.073Z,95168.31
2022-10-31T04:35:51.151Z,95162.50
2022-10-31T04:38:18.915Z,95170.13
2022-10-31T04:40:46.606Z,95161.94
2022-10-31T04:43:42.651Z,95169.91
2022-10-31T04:46:09.676Z,95172.50
2022-10-31T04:48:36.706Z,95174.09
2022-10-31T04:51:06.359Z,95170.28
2022-10-31T04:53:33.690Z,95170.19
2022-10-31T04:56:32.867Z,95176.69
2022-10-31T04:59:02.750Z,95182.69
2022-10-31T05:01:39.924Z,95187.81
2022-10-31T05:04:07.179Z,95182.09
2022-10-31T05:06:34.239Z,95188.91
2022-10-31T05:09:01.244Z,95188.19
2022-10-31T05:11:29.957Z,95187.94
2022-10-31T05:14:03.463Z,95194.16
2022-10-31T05:16:48.907Z,95198.00
2022-10-31T05:19:36.076Z,95198.88
2022-10-31T05:22:23.000Z,95193.69
2022-10-31T05:24:49.935Z,95198.00
2022-10-31T05:27:16.932Z,95205.00
2022-10-31T05:29:44.715Z,95200.06
2022-10-31T05:32:11.705Z,95205.50
2022-10-31T05:35:09.544Z,95206.91
2022-10-31T05:38:08.550Z,95208.81
2022-10-31T05:40:35.718Z,95209.13
2022-10-31T05:43:02.938Z,95210.59
2022-10-31T05:45:30.715Z,95209.09
2022-10-31T05:48:03.365Z,95224.06
2022-10-31T05:51:03.551Z,95218.44
2022-10-31T05:53:32.105Z,95215.59
2022-10-31T05:55:59.418Z,95219.13
2022-10-31T05:58:26.765Z,95224.22
2022-10-31T06:01:01.677Z,95229.00
2022-10-31T06:03:29.486Z,95227.78
2022-10-31T06:05:58.117Z,95227.19
2022-10-31T06:08:30.339Z,95234.69
2022-10-31T06:11:00.913Z,95232.94
2022-10-31T06:14:06.939Z,95233.94
2022-10-31T06:16:52.194Z,95236.50
2022-10-31T06:19:57.720Z,95242.91
2022-10-31T06:22:27.474Z,95240.88
2022-10-31T06:24:55.880Z,95245.97
2022-10-31T06:27:29.776Z,95251.88
2022-10-31T06:29:59.083Z,95253.34
2022-10-31T06:32:33.358Z,95256.44
2022-10-31T06:35:00.896Z,95253.75
2022-10-31T06:37:28.445Z,95254.72
2022-10-31T06:40:02.029Z,95255.75
2022-10-31T06:42:32.974Z,95263.59
2022-10-31T06:45:02.615Z,95268.84
2022-10-31T06:51:03.616Z,95261.44
2022-10-31T06:53:33.443Z,95277.06
2022-10-31T06:56:01.143Z,95272.28
2022-10-31T06:58:30.406Z,95268.47
2022-10-31T07:01:01.664Z,95270.41
2022-10-31T07:03:28.960Z,95276.84
2022-10-31T07:05:57.791Z,95266.97
2022-10-31T07:08:25.452Z,95278.31
2022-10-31T07:10:58.277Z,95273.25
2022-10-31T07:13:26.797Z,95273.91
2022-10-31T07:16:04.726Z,95282.03
2022-10-31T07:18:34.845Z,95279.38
2022-10-31T07:21:16.992Z,95277.66
2022-10-31T07:23:44.123Z,95268.25
2022-10-31T07:26:30.223Z,95273.38
2022-10-31T07:28:57.731Z,95252.97
2022-10-31T07:31:26.203Z,95254.09
2022-10-31T07:33:56.080Z,95258.22
2022-10-31T07:36:46.189Z,95257.44
2022-10-31T07:39:13.980Z,95264.41
2022-10-31T07:41:41.840Z,95265.06
2022-10-31T07:44:10.042Z,95256.28
2022-10-31T07:46:55.748Z,95256.97
2022-10-31T07:49:40.980Z,95255.03
2022-10-31T07:52:26.936Z,95249.78
2022-10-31T07:55:20.023Z,95254.88
2022-10-31T07:57:57.341Z,95248.13
2022-10-31T08:00:25.787Z,95252.78
2022-10-31T08:03:04.078Z,95252.31
2022-10-31T08:05:51.127Z,95254.38
2022-10-31T08:08:38.684Z,95249.88
2022-10-31T08:11:08.037Z,95252.88
2022-10-31T08:13:35.794Z,95255.25
2022-10-31T08:16:05.452Z,95252.38
2022-10-31T08:18:38.604Z,95262.56
2022-10-31T08:21:09.452Z,95262.66
2022-10-31T08:23:36.624Z,95263.09
2022-10-31T08:26:03.944Z,95257.94
2022-10-31T08:28:31.430Z,95260.13
2022-10-31T08:30:59.613Z,95255.59
2022-10-31T08:34:01.965Z,95253.91
2022-10-31T08:36:49.306Z,95255.88
2022-10-31T08:39:23.882Z,95259.97
2022-10-31T08:41:51.812Z,95250.47
2022-10-31T08:44:18.947Z,95249.09
2022-10-31T08:46:46.063Z,95246.75
2022-10-31T08:49:13.057Z,95248.69
2022-10-31T08:51:41.607Z,95257.09
2022-10-31T08:54:08.652Z,95251.16
2022-10-31T08:56:57.416Z,95242.88
2022-10-31T08:59:35.065Z,95246.22
2022-10-31T09:02:21.673Z,95248.31
2022-10-31T09:04:51.372Z,95253.50
2022-10-31T09:07:20.939Z,95262.59
2022-10-31T09:09:48.611Z,95249.81
2022-10-31T09:12:15.690Z,95246.78
2022-10-31T09:15:03.153Z,95245.56
2022-10-31T09:17:38.480Z,95249.72
2022-10-31T09:20:26.971Z,95241.66
2022-10-31T09:23:07.816Z,95249.06
2022-10-31T09:25:38.288Z,95247.91
2022-10-31T09:28:25.763Z,95242.22
2022-10-31T09:30:55.067Z,95242.41
2022-10-31T09:33:43.324Z,95250.28
2022-10-31T09:36:33.585Z,95235.50
2022-10-31T09:39:00.769Z,95233.50
2022-10-31T09:42:00.784Z,95240.25
2022-10-31T09:44:42.432Z,95244.78
2022-10-31T09:48:03.366Z,95239.34
2022-10-31T09:50:58.995Z,95234.38
2022-10-31T09:54:13.040Z,95229.81
2022-10-31T09:56:40.116Z,95236.53
2022-10-31T09:59:18.394Z,95226.75
2022-10-31T10:02:15.196Z,95229.28
2022-10-31T10:04:54.403Z,95228.94
2022-10-31T10:08:05.627Z,95228.59
2022-10-31T10:11:49.798Z,95228.53
2022-10-31T10:14:39.784Z,95220.06
2022-10-31T10:17:23.091Z,95228.41
2022-10-31T10:20:36.284Z,95216.13
2022-10-31T10:23:43.975Z,95204.72
2022-10-31T10:26:21.167Z,95196.53
2022-10-31T10:28:58.727Z,95202.69
2022-10-31T10:31:31.456Z,95194.25
2022-10-31T10:34:24.505Z,95199.06
2022-10-31T10:37:02.529Z,95190.66
2022-10-31T10:39:41.954Z,95187.81
2022-10-31T10:42:32.136Z,95184.22
2022-10-31T10:45:19.250Z,95182.00
2022-10-31T10:47:56.717Z,95175.97
2022-10-31T10:50:35.973Z,95171.56
2022-10-31T10:54:05.196Z,95164.75
2022-10-31T10:56:51.364Z,95164.69
2022-10-31T10:59:21.480Z,95170.47
2022-10-31T11:01:51.400Z,95171.06
2022-10-31T11:04:37.347Z,95170.56
2022-10-31T11:07:10.609Z,95165.94
2022-10-31T11:09:38.823Z,95163.50
2022-10-31T11:12:11.726Z,95159.69
2022-10-31T11:15:24.221Z,95155.69
2022-10-31T11:17:54.010Z,95156.19
2022-10-31T11:20:35.907Z,95151.91
2022-10-31T11:23:18.137Z,95153.22
2022-10-31T11:25:59.927Z,95148.19
2022-10-31T11:28:30.506Z,95142.38
2022-10-31T11:31:01.678Z,95138.91
2022-10-31T11:33:50.605Z,95144.88
2022-10-31T11:36:23.162Z,95136.28
2022-10-31T11:38:51.194Z,95141.41
2022-10-31T11:41:34.480Z,95141.00
2022-10-31T11:44:13.249Z,95135.91
2022-10-31T11:46:51.021Z,95131.59
2022-10-31T11:49:26.979Z,95122.91
2022-10-31T11:51:57.080Z,95119.34
2022-10-31T11:54:31.047Z,95120.91
2022-10-31T11:56:58.386Z,95118.09
2022-10-31T11:59:30.862Z,95107.47
2022-10-31T12:02:00.066Z,95115.72
2022-10-31T12:04:44.990Z,95109.06
2022-10-31T12:07:12.108Z,95112.97
2022-10-31T12:09:39.984Z,95109.38
2022-10-31T12:12:44.784Z,95105.81
2022-10-31T12:15:32.654Z,95111.69
2022-10-31T12:18:43.574Z,95098.88
2022-10-31T12:21:39.523Z,95106.72
2022-10-31T12:24:43.110Z,95103.44
2022-10-31T12:27:40.813Z,95101.81
2022-10-31T12:30:28.360Z,95102.56
2022-10-31T12:33:38.478Z,95096.53
2022-10-31T12:36:38.574Z,95096.25
2022-10-31T12:39:36.386Z,95090.53
2022-10-31T12:42:42.818Z,95094.03
2022-10-31T12:45:31.854Z,95088.88
2022-10-31T12:48:46.936Z,95088.84
2022-10-31T12:52:11.620Z,95094.84
2022-10-31T12:57:52.585Z,95089.78
2022-10-31T13:00:25.276Z,95096.06
2022-10-31T13:03:17.445Z,95094.94
2022-10-31T13:05:49.805Z,95089.50
2022-10-31T13:08:45.442Z,95091.66
2022-10-31T13:11:20.298Z,95091.63
2022-10-31T13:16:50.105Z,95089.38
2022-10-31T13:19:40.176Z,95093.44
2022-10-31T13:22:28.018Z,95093.13
2022-10-31T13:28:06.476Z,95090.06
2022-10-31T13:30:40.332Z,95086.28
2022-10-31T13:33:26.870Z,95086.50
2022-10-31T13:36:08.619Z,95081.41
2022-10-31T13:38:52.856Z,95087.13
2022-10-31T13:41:54.231Z,95090.16
2022-10-31T13:44:31.336Z,95097.97
2022-10-31T13:47:01.398Z,95088.53
2022-10-31T13:49:46.223Z,95092.34
2022-10-31T13:52:24.125Z,95081.34
2022-10-31T13:54:58.671Z,95082.19
2022-10-31T13:57:43.000Z,95086.19
2022-10-31T14:00:27.358Z,95088.00
2022-10-31T14:02:57.759Z,95086.66
2022-10-31T14:05:32.882Z,95075.06
2022-10-31T14:08:03.646Z,95083.59
2022-10-31T14:10:38.322Z,95092.56
2022-10-31T14:13:39.467Z,95085.09
2022-10-31T14:16:18.495Z,95086.94
2022-10-31T14:18:52.610Z,95090.63
2022-10-31T14:21:30.892Z,95091.09
2022-10-31T14:23:58.665Z,95090.91
2022-10-31T14:26:37.187Z,95086.53
2022-10-31T14:29:36.315Z,95089.13
2022-10-31T14:32:15.719Z,95091.75
2022-10-31T14:41:03.459Z,95096.22
2022-10-31T14:44:27.084Z,95090.88
2022-10-31T14:47:18.110Z,95093.44
2022-10-31T14:50:53.016Z,95100.06
2022-10-31T14:53:27.848Z,95095.41
2022-10-31T14:56:01.518Z,95093.59
2022-10-31T14:58:47.300Z,95096.81
2022-10-31T15:01:30.149Z,95092.34
2022-10-31T15:04:24.617Z,95093.06
2022-10-31T15:07:26.736Z,95106.06
2022-10-31T15:10:06.024Z,95091.00
2022-10-31T15:12:35.586Z,95096.63
2022-10-31T15:15:22.374Z,95097.56
2022-10-31T15:17:53.987Z,95096.09
2022-10-31T15:20:27.430Z,95098.03
2022-10-31T15:22:59.225Z,95101.56
2022-10-31T15:25:36.062Z,95104.63
2022-10-31T15:28:15.030Z,95112.03
2022-10-31T15:30:51.800Z,95113.88
2022-10-31T15:33:24.830Z,95115.34
2022-10-31T15:36:00.620Z,95108.97
2022-10-31T15:38:29.260Z,95111.97
2022-10-31T15:41:02.663Z,95103.09
2022-10-31T15:43:39.217Z,95112.38
2022-10-31T15:46:10.118Z,95121.66
2022-10-31T15:48:38.131Z,95115.22
2022-10-31T15:51:06.169Z,95117.78
2022-10-31T15:53:42.988Z,95117.25
2022-10-31T15:56:13.701Z,95117.91
2022-10-31T15:58:47.182Z,95123.34
2022-10-31T16:01:29.263Z,95125.41
2022-10-31T16:04:00.787Z,95127.41
2022-10-31T16:06:28.311Z,95132.59
2022-10-31T16:08:55.714Z,95125.31
2022-10-31T16:11:38.149Z,95134.44
2022-10-31T16:14:23.185Z,95146.00
2022-10-31T16:16:55.847Z,95147.72
2022-10-31T16:19:30.239Z,95151.75
2022-10-31T16:22:05.566Z,95156.94
2022-10-31T16:24:36.026Z,95156.69
2022-10-31T16:27:15.116Z,95158.41
2022-10-31T16:29:47.564Z,95163.53
2022-10-31T16:32:37.391Z,95164.19
2022-10-31T16:35:37.721Z,95169.75
2022-10-31T16:38:06.123Z,95165.41
2022-10-31T16:40:34.059Z,95173.41
2022-10-31T16:43:02.788Z,95169.69
2022-10-31T16:45:32.447Z,95180.44
2022-10-31T16:48:16.036Z,95179.00
2022-10-31T16:50:44.846Z,95188.25
2022-10-31T16:53:14.352Z,95183.84
2022-10-31T16:55:53.910Z,95180.88
2022-10-31T16:58:25.723Z,95183.63
2022-10-31T17:00:53.857Z,95185.22
2022-10-31T17:03:21.395Z,95191.38
2022-10-31T17:05:48.834Z,95197.00
2022-10-31T17:08:15.876Z,95191.00
2022-10-31T17:10:45.094Z,95197.88
2022-10-31T17:13:18.282Z,95206.97
2022-10-31T17:15:48.639Z,95203.22
2022-10-31T17:18:16.880Z,95207.13
2022-10-31T17:20:45.272Z,95205.09
2022-10-31T17:23:13.802Z,95207.81
2022-10-31T17:25:41.401Z,95205.88
2022-10-31T17:28:12.856Z,95206.78
2022-10-31T17:30:41.204Z,95217.03
2022-10-31T17:33:12.682Z,95218.13
2022-10-31T17:35:39.666Z,95218.41
2022-10-31T17:38:06.568Z,95215.13
2022-10-31T17:40:33.812Z,95227.47
2022-10-31T17:43:01.046Z,95225.78
2022-10-31T17:45:28.159Z,95227.91
2022-10-31T17:47:55.207Z,95219.25
2022-10-31T17:50:25.193Z,95228.72
2022-10-31T17:52:52.161Z,95229.22
2022-10-31T17:55:19.437Z,95231.03
2022-10-31T17:57:46.799Z,95233.50
2022-10-31T18:00:16.909Z,95230.97
2022-10-31T18:02:44.521Z,95233.44
2022-10-31T18:05:11.802Z,95239.06
2022-10-31T18:07:39.018Z,95240.03
2022-10-31T18:10:06.989Z,95231.59
2022-10-31T18:12:36.682Z,95243.00
2022-10-31T18:15:04.108Z,95236.47
2022-10-31T18:17:32.057Z,95245.63
2022-10-31T18:19:59.086Z,95246.31
2022-10-31T18:22:26.232Z,95243.78
2022-10-31T18:24:53.278Z,95241.25
2022-10-31T18:27:21.439Z,95251.84
2022-10-31T18:29:48.378Z,95248.38
2022-10-31T18:32:15.423Z,95247.44
2022-10-31T18:34:42.500Z,95246.34
2022-10-31T18:37:09.608Z,95245.34
2022-10-31T18:39:36.647Z,95249.84
2022-10-31T18:42:03.611Z,95244.22
2022-10-31T18:44:30.853Z,95246.47
2022-10-31T18:46:57.865Z,95246.91
2022-10-31T18:49:26.080Z,95246.72
2022-10-31T18:51:53.066Z,95249.66
2022-10-31T18:54:20.123Z,95253.84
2022-10-31T18:56:47.127Z,95249.47
2022-10-31T18:59:14.387Z,95256.19
2022-10-31T19:01:41.444Z,95252.69
2022-10-31T19:04:10.778Z,95254.13
2022-10-31T19:06:37.805Z,95256.69
2022-10-31T19:09:09.706Z,95257.97
2022-10-31T19:11:38.520Z,95249.84
2022-10-31T19:14:08.555Z,95248.44
2022-10-31T19:16:35.643Z,95254.00
2022-10-31T19:19:02.915Z,95246.19
2022-10-31T19:21:32.368Z,95256.91
2022-10-31T19:24:00.759Z,95251.00
2022-10-31T19:26:28.808Z,95250.38
2022-10-31T19:28:56.887Z,95256.75
2022-10-31T19:31:24.606Z,95254.69
2022-10-31T19:33:51.808Z,95251.97
2022-10-31T19:36:20.333Z,95264.09
2022-10-31T19:38:50.619Z,95260.28
2022-10-31T19:41:23.417Z,95258.53
2022-10-31T19:43:51.014Z,95264.59
2022-10-31T19:46:27.742Z,95265.22
2022-10-31T19:49:06.411Z,95261.84
2022-10-31T19:51:33.395Z,95265.34
2022-10-31T19:54:00.369Z,95264.41
2022-10-31T19:56:27.429Z,95264.72
2022-10-31T19:58:54.383Z,95267.94
2022-10-31T20:01:23.514Z,95269.38
2022-10-31T20:03:51.320Z,95270.84
2022-10-31T20:06:29.954Z,95271.00
2022-10-31T20:08:57.453Z,95271.63
2022-10-31T20:11:26.710Z,95271.16
2022-10-31T20:13:58.117Z,95267.50
2022-10-31T20:16:26.152Z,95271.34
2022-10-31T20:18:53.220Z,95271.34
2022-10-31T20:21:26.626Z,95268.63
2022-10-31T20:24:01.563Z,95282.03
2022-10-31T20:26:30.242Z,95273.88
2022-10-31T20:28:58.464Z,95276.44
2022-10-31T20:31:28.819Z,95280.28
2022-10-31T20:33:56.107Z,95281.88
2022-10-31T20:36:23.699Z,95285.72
2022-10-31T20:38:52.308Z,95294.94
2022-10-31T20:41:19.806Z,95296.38
2022-10-31T20:43:47.128Z,95294.00
2022-10-31T20:46:16.832Z,95299.75
2022-10-31T20:48:44.292Z,95307.66
2022-10-31T20:53:50.551Z,95302.19
2022-10-31T20:56:19.806Z,95298.66
2022-10-31T20:58:47.713Z,95303.44
2022-10-31T21:01:25.721Z,95306.75
2022-10-31T21:03:53.361Z,95312.31
2022-10-31T21:06:21.579Z,95311.53
2022-10-31T21:08:48.672Z,95310.88
2022-10-31T21:11:18.394Z,95317.59
2022-10-31T21:13:46.851Z,95311.69
2022-10-31T21:16:19.735Z,95315.50
2022-10-31T21:18:47.864Z,95314.72
2022-10-31T21:21:18.248Z,95314.53
2022-10-31T21:23:45.874Z,95311.16
2022-10-31T21:26:21.677Z,95309.38
2022-10-31T21:28:49.511Z,95307.31
2022-10-31T21:31:17.919Z,95305.69
2022-10-31T21:33:46.192Z,95309.53
2022-10-31T21:36:13.712Z,95314.47
2022-10-31T21:38:41.527Z,95307.44
2022-10-31T21:41:14.080Z,95310.97
2022-10-31T21:43:43.731Z,95311.28
2022-10-31T21:46:25.453Z,95303.63
2022-10-31T21:48:52.917Z,95312.56
2022-10-31T21:51:22.557Z,95315.56
2022-10-31T21:54:08.519Z,95312.88
2022-10-31T21:56:35.805Z,95309.03
2022-10-31T21:59:03.098Z,95308.06
2022-10-31T22:01:30.333Z,95312.00
2022-10-31T22:03:58.244Z,95309.94
2022-10-31T22:06:26.812Z,95312.78
2022-10-31T22:08:59.350Z,95308.16
2022-10-31T22:11:28.222Z,95313.75
2022-10-31T22:13:55.411Z,95313.13
2022-10-31T22:16:24.200Z,95312.50
2022-10-31T22:18:55.994Z,95318.91
2022-10-31T22:21:25.470Z,95319.09
2022-10-31T22:23:54.071Z,95318.28
2022-10-31T22:26:21.490Z,95315.69
2022-10-31T22:28:53.093Z,95316.16
2022-10-31T22:31:22.027Z,95318.50
2022-10-31T22:33:50.482Z,95320.84
2022-10-31T22:36:20.739Z,95326.72
2022-10-31T22:38:48.349Z,95320.94
2022-10-31T22:41:21.165Z,95330.16
2022-10-31T22:43:48.602Z,95326.34
2022-10-31T22:46:19.257Z,95321.56
2022-10-31T22:48:52.964Z,95318.44
2022-10-31T22:51:22.556Z,95325.59
2022-10-31T22:53:50.696Z,95335.13
2022-10-31T22:56:22.865Z,95325.41
2022-10-31T22:58:50.017Z,95330.03
2022-10-31T23:01:19.890Z,95321.09
2022-10-31T23:03:48.021Z,95327.31
2022-10-31T23:06:17.887Z,95322.22
2022-10-31T23:08:45.613Z,95318.53
2022-10-31T23:11:42.154Z,95315.13
2022-10-31T23:14:18.764Z,95313.03
2022-10-31T23:16:54.550Z,95313.16
2022-10-31T23:19:30.891Z,95317.69
2022-10-31T23:22:02.493Z,95322.91
2022-10-31T23:24:47.607Z,95324.69
2022-10-31T23:27:19.403Z,95327.31
2022-10-31T23:29:57.381Z,95324.81
2022-10-31T23:32:37.185Z,95327.97
2022-10-31T23:35:10.613Z,95331.00
2022-10-31T23:37:38.770Z,95327.44
2022-10-31T23:40:08.904Z,95330.03
2022-10-31T23:42:36.068Z,95330.13
2022-10-31T23:45:03.416Z,95330.53
2022-10-31T23:47:30.435Z,95329.03
2022-10-31T23:49:57.353Z,95325.06
2022-10-31T23:52:24.395Z,95323.44
2022-10-31T23:54:51.594Z,95324.06
2022-10-31T23:57:19.690Z,95327.97
2022-10-31T23:59:48.033Z,95325.34
